Ark, Virginia
Current Conditions -  °F | °C
As of 1:15 PM on Saturday 25 Oct 2014 (Local Time) from KFYJ Reporting Station
Clear Clear  
Wind Chill: 71°   Ceiling: Unl
Heat Index: 71°   Visibility: 10mi
Dew Point: 36°   Wind: 3mph
Humidity: 28%   Direction: 270°W
Pressure: 29.92"   Gusts: NA
Location:  37.44°N, 76.58°W
Report Text: KFYJ 251715Z AUTO 27003KT 10SM CLR 21/02 A2992 RMK AO2 T02140022
Loading
Personal Weather Stations






























Interactive Weather Map
Tropical Storm Tracking
New forecast layout! Learn more

10-Day Weather Forecast

Advertisements
Track Severe Weather on mobile